createdAt,value
2023-08-23T00:01:24.244Z,6.03
2023-08-23T00:03:53.028Z,5.60
2023-08-23T00:06:20.266Z,7.53
2023-08-23T00:08:47.215Z,5.97
2023-08-23T00:11:14.143Z,6.27
2023-08-23T00:13:41.077Z,6.47
2023-08-23T00:16:08.001Z,5.83
2023-08-23T00:18:34.896Z,5.97
2023-08-23T00:21:01.808Z,6.47
2023-08-23T00:23:28.650Z,8.63
2023-08-23T00:25:55.528Z,5.93
2023-08-23T00:28:22.425Z,5.57
2023-08-23T00:30:58.584Z,5.70
2023-08-23T00:33:25.547Z,5.80
2023-08-23T00:35:52.477Z,8.03
2023-08-23T00:38:19.377Z,6.43
2023-08-23T00:40:46.255Z,10.40
2023-08-23T00:43:13.091Z,17.10
2023-08-23T00:45:42.723Z,19.53
2023-08-23T00:48:12.848Z,14.43
2023-08-23T00:50:41.889Z,13.97
2023-08-23T00:53:09.783Z,10.33
2023-08-23T00:55:36.992Z,20.87
2023-08-23T00:58:05.251Z,16.10
2023-08-23T01:00:33.435Z,17.07
2023-08-23T01:03:01.147Z,14.50
2023-08-23T01:06:05.097Z,15.10
2023-08-23T01:09:17.745Z,19.13
2023-08-23T01:12:08.622Z,17.07
2023-08-23T01:14:59.682Z,15.07
2023-08-23T01:17:28.093Z,11.47
2023-08-23T01:19:57.349Z,13.43
2023-08-23T01:22:25.528Z,15.90
2023-08-23T01:24:52.874Z,13.87
2023-08-23T01:27:20.432Z,13.37
2023-08-23T01:29:48.333Z,11.77
2023-08-23T01:32:42.962Z,13.43
2023-08-23T01:35:20.918Z,13.93
2023-08-23T01:37:54.748Z,11.80
2023-08-23T01:40:22.677Z,14.07
2023-08-23T01:42:49.890Z,13.33
2023-08-23T01:45:16.967Z,10.40
2023-08-23T01:47:43.825Z,13.57
2023-08-23T01:50:11.043Z,11.97
2023-08-23T01:52:37.891Z,10.53
2023-08-23T01:55:05.278Z,10.93
2023-08-23T01:57:32.156Z,12.57
2023-08-23T01:59:59.031Z,12.33
2023-08-23T02:02:25.933Z,12.17
2023-08-23T02:04:52.827Z,11.10
2023-08-23T02:07:19.667Z,9.53
2023-08-23T02:09:46.598Z,12.10
2023-08-23T02:12:13.472Z,10.33
2023-08-23T02:14:40.326Z,14.30
2023-08-23T02:17:07.449Z,10.37
2023-08-23T02:19:34.333Z,10.37
2023-08-23T02:22:01.209Z,10.30
2023-08-23T02:24:28.113Z,9.57
2023-08-23T02:26:54.975Z,11.23
2023-08-23T02:29:21.913Z,11.40
2023-08-23T02:31:48.765Z,10.43
2023-08-23T02:34:15.659Z,10.80
2023-08-23T02:36:42.541Z,10.33
2023-08-23T02:39:10.697Z,10.03
2023-08-23T02:41:37.518Z,9.83
2023-08-23T02:44:04.593Z,10.03
2023-08-23T02:46:31.524Z,9.80
2023-08-23T02:48:58.387Z,10.13
2023-08-23T02:51:25.246Z,9.80
2023-08-23T02:53:52.222Z,10.63
2023-08-23T02:56:19.100Z,10.87
2023-08-23T02:58:46.011Z,10.60
2023-08-23T03:01:12.892Z,10.13
2023-08-23T03:03:39.873Z,12.47
2023-08-23T03:06:06.725Z,12.10
2023-08-23T03:08:33.563Z,10.10
2023-08-23T03:11:08.473Z,11.53
2023-08-23T03:13:35.900Z,11.77
2023-08-23T03:16:03.145Z,12.10
2023-08-23T03:18:30.370Z,9.50
2023-08-23T03:20:57.257Z,10.30
2023-08-23T03:23:24.180Z,10.17
2023-08-23T03:25:51.592Z,10.77
2023-08-23T03:28:18.530Z,10.20
2023-08-23T03:30:45.762Z,11.00
2023-08-23T03:33:12.768Z,10.17
2023-08-23T03:35:39.664Z,11.43
2023-08-23T03:38:06.799Z,10.23
2023-08-23T03:40:39.373Z,10.50
2023-08-23T03:43:06.758Z,9.70
2023-08-23T03:45:34.799Z,10.53
2023-08-23T03:48:01.820Z,10.40
2023-08-23T03:50:28.794Z,10.47
2023-08-23T03:52:55.692Z,11.70
2023-08-23T03:55:22.577Z,11.90
2023-08-23T03:57:52.031Z,11.03
2023-08-23T04:00:19.140Z,10.73
2023-08-23T04:02:46.688Z,11.43
2023-08-23T04:05:13.787Z,11.47
2023-08-23T04:07:41.918Z,11.03
2023-08-23T04:10:09.343Z,11.17
2023-08-23T04:12:36.311Z,12.70
2023-08-23T04:15:04.202Z,12.43
2023-08-23T04:17:31.234Z,12.27
2023-08-23T04:19:58.181Z,12.97
2023-08-23T04:22:25.089Z,13.43
2023-08-23T04:24:52.509Z,15.70
2023-08-23T04:27:19.490Z,13.20
2023-08-23T04:29:46.391Z,12.27
2023-08-23T04:32:14.139Z,16.10
2023-08-23T04:34:41.329Z,12.17
2023-08-23T04:37:08.515Z,12.43
2023-08-23T04:39:35.564Z,12.60
2023-08-23T04:42:02.810Z,12.43
2023-08-23T04:44:30.480Z,12.70
2023-08-23T04:46:59.074Z,14.33
2023-08-23T04:49:26.030Z,12.73
2023-08-23T04:51:53.014Z,11.97
2023-08-23T04:54:19.871Z,11.57
2023-08-23T04:56:46.814Z,13.73
2023-08-23T04:59:13.707Z,12.90
2023-08-23T05:01:40.776Z,11.97
2023-08-23T05:04:08.679Z,12.60
2023-08-23T05:06:36.445Z,12.43
2023-08-23T05:09:05.856Z,12.00
2023-08-23T05:11:33.285Z,12.43
2023-08-23T05:14:00.181Z,12.23
2023-08-23T05:16:27.130Z,11.77
2023-08-23T05:18:54.089Z,15.67
2023-08-23T05:21:20.965Z,12.53
2023-08-23T05:23:47.899Z,12.50
2023-08-23T05:26:14.798Z,12.70
2023-08-23T05:28:41.619Z,12.27
2023-08-23T05:31:08.548Z,12.47
2023-08-23T05:33:35.490Z,10.83
2023-08-23T05:36:02.393Z,10.97
2023-08-23T05:38:30.387Z,11.87
2023-08-23T05:40:57.337Z,10.87
2023-08-23T05:43:24.487Z,10.67
2023-08-23T05:45:55.955Z,9.53
2023-08-23T05:48:23.386Z,9.77
2023-08-23T05:50:50.499Z,9.47
2023-08-23T05:53:20.809Z,9.83
2023-08-23T05:55:49.601Z,8.73
2023-08-23T05:58:19.133Z,8.60
2023-08-23T06:00:48.050Z,8.33
2023-08-23T06:03:18.674Z,8.87
2023-08-23T06:05:45.982Z,8.03
2023-08-23T06:08:12.939Z,8.33
2023-08-23T06:10:39.924Z,8.37
2023-08-23T06:13:06.811Z,7.97
2023-08-23T06:15:33.722Z,8.07
2023-08-23T06:18:00.756Z,8.20
2023-08-23T06:20:29.947Z,7.97
2023-08-23T06:22:58.943Z,7.07
2023-08-23T06:25:26.118Z,7.63
2023-08-23T06:27:53.066Z,7.70
2023-08-23T06:30:20.055Z,7.63
2023-08-23T06:32:50.419Z,9.20
2023-08-23T06:35:18.713Z,8.07
2023-08-23T06:37:46.512Z,7.70
2023-08-23T06:40:15.303Z,6.90
2023-08-23T06:42:42.243Z,8.17
2023-08-23T06:45:10.727Z,7.70
2023-08-23T06:47:38.714Z,7.50
2023-08-23T06:50:10.534Z,7.13
2023-08-23T06:52:39.929Z,7.47
2023-08-23T06:55:07.721Z,8.50
2023-08-23T06:57:34.828Z,9.77
2023-08-23T07:00:01.861Z,7.33
2023-08-23T07:02:28.804Z,7.70
2023-08-23T07:04:55.783Z,7.53
2023-08-23T07:07:23.255Z,8.17
2023-08-23T07:09:51.219Z,7.93
2023-08-23T07:12:18.305Z,13.17
2023-08-23T07:14:48.034Z,8.27
2023-08-23T07:17:15.158Z,9.97
2023-08-23T07:19:42.131Z,8.63
2023-08-23T07:22:09.122Z,8.57
2023-08-23T07:24:36.012Z,8.93
2023-08-23T07:27:02.959Z,10.17
2023-08-23T07:29:30.588Z,10.67
2023-08-23T07:31:58.586Z,8.00
2023-08-23T07:34:26.830Z,9.13
2023-08-23T07:36:53.793Z,9.13
2023-08-23T07:39:21.151Z,13.43
2023-08-23T07:41:48.033Z,8.40
2023-08-23T07:44:14.927Z,10.53
2023-08-23T07:46:41.799Z,9.50
2023-08-23T07:49:08.731Z,9.03
2023-08-23T07:51:35.620Z,10.00
2023-08-23T07:54:04.173Z,9.20
2023-08-23T07:56:31.037Z,8.20
2023-08-23T07:58:58.262Z,10.88
2023-08-23T08:01:25.403Z,7.78
2023-08-23T08:03:52.843Z,7.60
2023-08-23T08:06:20.331Z,7.90
2023-08-23T08:08:47.232Z,8.00
2023-08-23T08:11:15.622Z,8.00
2023-08-23T08:13:42.883Z,7.90
2023-08-23T08:16:15.397Z,8.55
2023-08-23T08:18:44.220Z,7.57
2023-08-23T08:21:11.598Z,11.35
2023-08-23T08:23:38.705Z,9.23
2023-08-23T08:26:07.906Z,5.90
2023-08-23T08:28:35.054Z,11.40
2023-08-23T08:31:01.991Z,6.32
2023-08-23T08:33:28.889Z,5.95
2023-08-23T08:35:55.730Z,7.75
2023-08-23T08:38:23.648Z,6.13
2023-08-23T08:40:51.395Z,6.97
2023-08-23T08:43:19.417Z,6.35
2023-08-23T08:45:47.185Z,7.20
2023-08-23T08:48:14.274Z,8.73
2023-08-23T08:50:44.009Z,5.88
2023-08-23T08:53:18.308Z,5.30
2023-08-23T08:55:49.833Z,8.52
2023-08-23T08:58:20.953Z,4.72
2023-08-23T09:00:53.842Z,5.13
2023-08-23T09:03:21.488Z,5.22
2023-08-23T09:05:51.884Z,5.03
2023-08-23T09:08:18.981Z,6.68
2023-08-23T09:10:46.139Z,7.75
2023-08-23T09:13:13.288Z,5.30
2023-08-23T09:15:40.467Z,6.28
2023-08-23T09:18:07.565Z,6.38
2023-08-23T09:20:36.052Z,6.47
2023-08-23T09:23:02.950Z,5.72
2023-08-23T09:25:29.964Z,7.13
2023-08-23T09:27:57.299Z,5.00
2023-08-23T09:30:24.688Z,6.35
2023-08-23T09:32:51.591Z,5.53
2023-08-23T09:35:19.345Z,5.28
2023-08-23T09:37:50.392Z,5.40
2023-08-23T09:40:26.389Z,4.35
2023-08-23T09:42:57.149Z,4.72
2023-08-23T09:45:26.728Z,5.95
2023-08-23T09:48:00.600Z,5.78
2023-08-23T09:50:29.530Z,6.45
2023-08-23T09:53:05.658Z,4.72
2023-08-23T09:55:35.817Z,5.28
2023-08-23T09:58:03.782Z,5.65
2023-08-23T10:00:31.198Z,7.10
2023-08-23T10:02:59.042Z,5.05
2023-08-23T10:05:28.145Z,4.43
2023-08-23T10:07:57.337Z,6.70
2023-08-23T10:10:25.391Z,4.93
2023-08-23T10:12:56.840Z,5.97
2023-08-23T10:15:33.066Z,5.40
2023-08-23T10:18:02.170Z,5.38
2023-08-23T10:20:29.260Z,4.88
2023-08-23T10:22:59.418Z,8.32
2023-08-23T10:25:26.843Z,5.75
2023-08-23T10:27:57.149Z,5.57
2023-08-23T10:30:29.987Z,5.40
2023-08-23T10:33:09.912Z,4.60
2023-08-23T10:35:38.733Z,5.63
2023-08-23T10:38:10.088Z,6.50
2023-08-23T10:40:39.669Z,5.72
2023-08-23T10:43:16.000Z,6.22
2023-08-23T10:45:49.626Z,4.28
2023-08-23T10:48:20.130Z,7.80
2023-08-23T10:50:48.680Z,5.78
2023-08-23T10:53:17.915Z,6.75
2023-08-23T10:55:46.099Z,4.57
2023-08-23T10:58:14.815Z,4.38
2023-08-23T11:00:51.871Z,4.97
2023-08-23T11:03:20.977Z,9.20
2023-08-23T11:05:48.499Z,7.15
2023-08-23T11:08:16.954Z,4.22
2023-08-23T11:10:44.997Z,6.65
2023-08-23T11:13:13.130Z,8.63
2023-08-23T11:15:42.259Z,7.43
2023-08-23T11:18:09.202Z,6.53
2023-08-23T11:20:36.297Z,5.95
2023-08-23T11:23:04.952Z,4.90
2023-08-23T11:25:33.090Z,6.65
2023-08-23T11:28:00.516Z,4.38
2023-08-23T11:30:28.295Z,7.22
2023-08-23T11:32:58.062Z,7.25
2023-08-23T11:35:25.112Z,8.77
2023-08-23T11:37:54.705Z,4.88
2023-08-23T11:40:24.214Z,5.13
2023-08-23T11:43:08.032Z,5.40
2023-08-23T11:45:43.630Z,5.10
2023-08-23T11:48:12.092Z,5.13
2023-08-23T11:50:40.194Z,4.93
2023-08-23T11:53:09.901Z,5.68
2023-08-23T11:55:37.449Z,5.40
2023-08-23T11:58:05.357Z,4.43
2023-08-23T12:00:32.503Z,5.45
2023-08-23T12:02:59.380Z,5.35
2023-08-23T12:05:26.624Z,6.47
2023-08-23T12:07:54.154Z,7.55
2023-08-23T12:10:21.132Z,5.35
2023-08-23T12:12:48.339Z,6.30
2023-08-23T12:15:15.190Z,5.70
2023-08-23T12:17:42.035Z,5.30
2023-08-23T12:20:11.683Z,8.20
2023-08-23T12:22:45.404Z,4.72
2023-08-23T12:25:12.289Z,5.85
2023-08-23T12:27:39.274Z,6.70
2023-08-23T12:30:07.419Z,5.65
2023-08-23T12:32:34.340Z,6.35
2023-08-23T12:35:04.857Z,6.03
2023-08-23T12:37:31.818Z,6.10
2023-08-23T12:39:58.662Z,9.13
2023-08-23T12:42:25.529Z,9.35
2023-08-23T12:44:52.391Z,6.15
2023-08-23T12:47:19.309Z,5.28
2023-08-23T12:49:46.224Z,6.45
2023-08-23T12:52:14.156Z,5.80
2023-08-23T12:54:41.071Z,5.93
2023-08-23T12:57:08.111Z,6.32
2023-08-23T12:59:34.976Z,6.38
2023-08-23T13:02:01.927Z,6.88
2023-08-23T13:04:28.853Z,5.80
2023-08-23T13:06:55.692Z,5.47
2023-08-23T13:09:23.584Z,5.55
2023-08-23T13:11:50.471Z,5.65
2023-08-23T13:14:18.358Z,6.60
2023-08-23T13:16:45.215Z,7.50
2023-08-23T13:19:12.063Z,6.20
2023-08-23T13:21:39.188Z,6.07
2023-08-23T13:24:06.294Z,7.38
2023-08-23T13:26:35.129Z,6.25
2023-08-23T13:29:02.001Z,8.32
2023-08-23T13:31:29.248Z,5.15
2023-08-23T13:33:56.192Z,8.02
2023-08-23T13:36:23.044Z,8.70
2023-08-23T13:38:49.908Z,5.95
2023-08-23T13:41:16.802Z,8.48
2023-08-23T13:43:43.651Z,7.15
2023-08-23T13:46:11.187Z,6.18
2023-08-23T13:48:38.680Z,5.88
2023-08-23T13:51:06.611Z,6.10
2023-08-23T13:53:33.482Z,7.38
2023-08-23T13:56:00.369Z,5.30
2023-08-23T13:58:27.275Z,7.60
2023-08-23T14:00:54.253Z,6.53
2023-08-23T14:03:21.150Z,7.53
2023-08-23T14:05:48.225Z,7.85
2023-08-23T14:08:15.106Z,5.07
2023-08-23T14:10:41.957Z,5.82
2023-08-23T14:13:08.917Z,6.95
2023-08-23T14:15:35.844Z,7.45
2023-08-23T14:18:02.752Z,5.57
2023-08-23T14:20:29.631Z,4.97
2023-08-23T14:22:56.491Z,5.75
2023-08-23T14:25:23.338Z,8.07
2023-08-23T14:27:50.549Z,5.90
2023-08-23T14:30:17.631Z,4.85
2023-08-23T14:32:51.686Z,5.40
2023-08-23T14:35:19.437Z,4.55
2023-08-23T14:37:47.443Z,4.72
2023-08-23T14:40:15.391Z,4.78
2023-08-23T14:42:43.410Z,4.55
2023-08-23T14:45:11.308Z,4.93
2023-08-23T14:47:38.447Z,6.35
2023-08-23T14:50:06.178Z,5.63
2023-08-23T14:52:34.088Z,6.70
2023-08-23T14:55:09.947Z,5.95
2023-08-23T14:57:37.700Z,5.82
2023-08-23T15:00:05.912Z,7.97
2023-08-23T15:02:35.159Z,6.15
2023-08-23T15:05:03.480Z,5.03
2023-08-23T15:07:30.661Z,6.65
2023-08-23T15:09:57.573Z,7.63
2023-08-23T15:12:24.544Z,8.55
2023-08-23T15:14:51.482Z,4.93
2023-08-23T15:17:18.902Z,4.68
2023-08-23T15:19:47.837Z,5.47
2023-08-23T15:22:14.840Z,5.10
2023-08-23T15:24:41.706Z,6.95
2023-08-23T15:27:09.089Z,6.95
2023-08-23T15:29:40.508Z,4.95
2023-08-23T15:32:12.218Z,8.82
2023-08-23T15:34:53.321Z,6.40
2023-08-23T15:37:21.768Z,6.28
2023-08-23T15:39:50.249Z,7.22
2023-08-23T15:42:17.347Z,4.40
2023-08-23T15:44:44.828Z,6.15
2023-08-23T15:47:11.823Z,5.90
2023-08-23T15:49:38.675Z,5.00
2023-08-23T15:52:05.884Z,8.65
2023-08-23T15:54:33.045Z,6.80
2023-08-23T15:57:00.000Z,5.03
2023-08-23T15:59:28.876Z,6.63
2023-08-23T16:01:56.409Z,6.60
2023-08-23T16:04:24.946Z,4.82
2023-08-23T16:06:56.289Z,4.95
2023-08-23T16:09:23.911Z,4.63
2023-08-23T16:11:51.064Z,5.95
2023-08-23T16:14:18.369Z,7.13
2023-08-23T16:16:45.241Z,5.35
2023-08-23T16:19:12.573Z,5.68
2023-08-23T16:21:39.742Z,5.90
2023-08-23T16:24:06.684Z,5.60
2023-08-23T16:26:33.542Z,7.00
2023-08-23T16:29:00.999Z,5.43
2023-08-23T16:31:28.298Z,5.50
2023-08-23T16:33:55.165Z,6.93
2023-08-23T16:36:22.061Z,6.90
2023-08-23T16:38:51.228Z,8.75
2023-08-23T16:41:18.187Z,7.53
2023-08-23T16:43:45.063Z,4.80
2023-08-23T16:46:12.118Z,5.18
2023-08-23T16:48:39.055Z,6.28
2023-08-23T16:51:06.407Z,5.18
2023-08-23T16:53:33.334Z,8.90
2023-08-23T16:56:00.188Z,6.18
2023-08-23T16:58:29.067Z,7.95
2023-08-23T17:00:57.903Z,5.22
2023-08-23T17:03:24.819Z,6.72
2023-08-23T17:05:51.994Z,6.70
2023-08-23T17:08:18.892Z,7.18
2023-08-23T17:10:45.817Z,6.55
2023-08-23T17:13:12.708Z,7.90
2023-08-23T17:15:39.572Z,7.15
2023-08-23T17:18:06.618Z,6.40
2023-08-23T17:20:33.550Z,6.70
2023-08-23T17:23:01.698Z,4.90
2023-08-23T17:25:29.036Z,5.63
2023-08-23T17:28:01.186Z,9.00
2023-08-23T17:30:29.815Z,6.85
2023-08-23T17:32:56.689Z,7.00
2023-08-23T17:35:23.581Z,5.28
2023-08-23T17:37:50.672Z,5.32
2023-08-23T17:40:17.637Z,5.35
2023-08-23T17:42:45.227Z,5.22
2023-08-23T17:45:12.319Z,15.82
2023-08-23T17:47:39.449Z,20.50
2023-08-23T17:50:06.786Z,12.00
2023-08-23T17:52:33.803Z,14.27
2023-08-23T17:55:00.730Z,15.32
2023-08-23T17:57:27.803Z,8.02
2023-08-23T17:59:54.645Z,7.82
2023-08-23T18:02:21.575Z,6.47
2023-08-23T18:04:48.478Z,8.20
2023-08-23T18:07:15.359Z,8.90
2023-08-23T18:09:44.255Z,6.20
2023-08-23T18:12:11.507Z,6.25
2023-08-23T18:14:38.370Z,6.20
2023-08-23T18:17:05.467Z,6.47
2023-08-23T18:19:32.331Z,6.40
2023-08-23T18:21:59.210Z,6.65
2023-08-23T18:24:26.092Z,6.75
2023-08-23T18:26:52.988Z,6.45
2023-08-23T18:29:19.837Z,7.03
2023-08-23T18:31:46.662Z,6.57
2023-08-23T18:34:13.556Z,8.70
2023-08-23T18:36:40.439Z,6.23
2023-08-23T18:39:07.293Z,7.13
2023-08-23T18:41:34.197Z,6.33
2023-08-23T18:44:01.145Z,6.60
2023-08-23T18:46:28.849Z,6.83
2023-08-23T18:48:55.713Z,8.67
2023-08-23T18:51:22.633Z,6.90
2023-08-23T18:53:49.491Z,7.80
2023-08-23T18:56:16.468Z,7.07
2023-08-23T18:58:43.350Z,6.93
2023-08-23T19:01:10.240Z,9.20
2023-08-23T19:03:38.445Z,7.03
2023-08-23T19:06:05.498Z,7.00
2023-08-23T19:08:32.376Z,8.43
2023-08-23T19:11:00.012Z,6.87
2023-08-23T19:13:27.006Z,7.87
2023-08-23T19:15:53.867Z,8.77
2023-08-23T19:18:21.523Z,7.20
2023-08-23T19:20:51.775Z,7.37
2023-08-23T19:23:18.728Z,7.40
2023-08-23T19:25:45.800Z,7.07
2023-08-23T19:28:12.821Z,7.60
2023-08-23T19:30:39.719Z,8.57
2023-08-23T19:33:06.756Z,7.13
2023-08-23T19:35:45.692Z,8.67
2023-08-23T19:38:13.338Z,6.40
2023-08-23T19:40:40.253Z,6.70
2023-08-23T19:43:07.634Z,6.83
2023-08-23T19:45:34.642Z,7.30
2023-08-23T19:48:10.972Z,6.97
2023-08-23T19:50:49.238Z,6.53
2023-08-23T19:53:16.304Z,6.30
2023-08-23T19:55:43.219Z,6.53
2023-08-23T19:58:10.068Z,6.53
2023-08-23T20:00:36.994Z,6.33
2023-08-23T20:03:04.457Z,6.83
2023-08-23T20:05:31.437Z,5.87
2023-08-23T20:08:01.303Z,6.83
2023-08-23T20:10:29.123Z,6.40
2023-08-23T20:12:56.061Z,9.03
2023-08-23T20:15:22.994Z,6.47
2023-08-23T20:17:50.240Z,8.03
2023-08-23T20:20:17.501Z,6.13
2023-08-23T20:22:44.317Z,6.20
2023-08-23T20:25:11.321Z,6.93
2023-08-23T20:27:38.143Z,6.90
2023-08-23T20:30:06.161Z,7.27
2023-08-23T20:32:33.057Z,6.33
2023-08-23T20:34:59.946Z,7.40
2023-08-23T20:37:27.346Z,5.83
2023-08-23T20:39:54.294Z,5.67
2023-08-23T20:42:23.007Z,6.57
2023-08-23T20:44:49.883Z,8.97
2023-08-23T20:47:16.705Z,6.67
2023-08-23T20:49:43.524Z,5.73
2023-08-23T20:52:10.418Z,7.03
2023-08-23T20:54:37.335Z,5.90
2023-08-23T20:57:04.320Z,6.13
2023-08-23T20:59:31.145Z,6.20
2023-08-23T21:01:58.033Z,7.03
2023-08-23T21:04:26.531Z,6.53
2023-08-23T21:06:53.533Z,5.93
2023-08-23T21:09:20.367Z,6.30
2023-08-23T21:11:47.194Z,6.00
2023-08-23T21:14:14.057Z,6.70
2023-08-23T21:16:41.112Z,6.50
2023-08-23T21:19:08.197Z,7.30
2023-08-23T21:21:35.070Z,6.97
2023-08-23T21:24:02.085Z,8.03
2023-08-23T21:26:29.265Z,7.57
2023-08-23T21:28:56.177Z,9.20
2023-08-23T21:31:23.207Z,6.50
2023-08-23T21:33:50.258Z,6.80
2023-08-23T21:36:18.112Z,6.97
2023-08-23T21:38:45.809Z,6.50
2023-08-23T21:41:13.438Z,7.67
2023-08-23T21:43:40.347Z,8.90
2023-08-23T21:46:07.280Z,6.50
2023-08-23T21:48:34.375Z,8.27
2023-08-23T21:51:01.307Z,6.83
2023-08-23T21:53:28.199Z,9.47
2023-08-23T21:55:56.512Z,7.67
2023-08-23T21:58:29.885Z,9.70
2023-08-23T22:01:04.202Z,7.57
2023-08-23T22:03:39.801Z,8.27
2023-08-23T22:06:12.341Z,6.73
2023-08-23T22:08:46.942Z,6.70
2023-08-23T22:11:15.802Z,7.73
2023-08-23T22:13:43.979Z,7.10
2023-08-23T22:16:11.312Z,6.20
2023-08-23T22:18:38.906Z,7.07
2023-08-23T22:21:08.230Z,7.03
2023-08-23T22:23:35.891Z,6.40
2023-08-23T22:26:04.749Z,8.50
2023-08-23T22:28:32.575Z,8.73
2023-08-23T22:30:59.854Z,8.07
2023-08-23T22:33:27.519Z,6.73
2023-08-23T22:35:57.502Z,6.80
2023-08-23T22:38:25.387Z,6.37
2023-08-23T22:40:52.552Z,6.47
2023-08-23T22:43:19.897Z,6.83
2023-08-23T22:45:47.072Z,9.10
2023-08-23T22:48:14.119Z,6.50
2023-08-23T22:50:41.360Z,6.57
2023-08-23T22:53:08.185Z,6.33
2023-08-23T22:55:35.301Z,8.33
2023-08-23T22:58:02.194Z,7.67
2023-08-23T23:00:29.355Z,6.80
2023-08-23T23:02:58.036Z,6.53
2023-08-23T23:05:25.379Z,10.07
2023-08-23T23:07:52.469Z,6.87
2023-08-23T23:10:22.145Z,7.60
2023-08-23T23:12:49.149Z,8.50
2023-08-23T23:15:16.400Z,8.37
2023-08-23T23:17:43.874Z,7.40
2023-08-23T23:20:14.211Z,7.83
2023-08-23T23:22:41.662Z,6.47
2023-08-23T23:25:09.905Z,6.87
2023-08-23T23:27:37.777Z,8.73
2023-08-23T23:30:06.240Z,8.40
2023-08-23T23:32:34.329Z,6.87
2023-08-23T23:35:01.423Z,7.27
2023-08-23T23:37:28.769Z,7.27
2023-08-23T23:39:55.825Z,8.10
2023-08-23T23:42:22.949Z,8.07
2023-08-23T23:44:49.945Z,7.93
2023-08-23T23:47:16.938Z,8.73
2023-08-23T23:49:43.838Z,7.00
2023-08-23T23:52:10.825Z,6.70
2023-08-23T23:54:37.719Z,7.33
2023-08-23T23:57:05.887Z,8.57
2023-08-23T23:59:32.802Z,7.10
